Time;durP1;ratioP1;P1;durP2;ratioP2;P2;SDS_P1;SDS_P2;PMS_P1;PMS_P2;Temp;Humidity;BMP_temperature;BMP_pressure;BME280_temperature;BME280_humidity;BME280_pressure;Samples;Min_cycle;Max_cycle;Signal;HPM_P1;HPM_P2
2023/07/06 00:01:56;;;;;;;10.48;7.55;;;13.90;99.90;;;;;;15412244;23;20020;-38
2023/07/06 00:08:00;;;;;;;11.38;8.73;;;14.00;99.90;;;;;;15408551;23;20024;-38
2023/07/06 00:14:07;;;;;;;11.75;8.35;;;13.90;99.90;;;;;;15390308;23;20031;-38
2023/07/06 00:20:12;;;;;;;13.10;8.15;;;13.90;99.90;;;;;;15416911;23;20027;-38
2023/07/06 00:26:16;;;;;;;11.43;7.80;;;13.90;99.90;;;;;;15420048;23;20035;-38
2023/07/06 00:32:28;;;;;;;12.18;8.18;;;13.90;99.90;;;;;;15414088;23;20021;-37
2023/07/06 00:38:31;;;;;;;11.25;8.10;;;14.00;99.90;;;;;;15418932;23;20031;-37
2023/07/06 00:44:57;;;;;;;11.88;8.40;;;13.90;99.90;;;;;;15414896;23;20035;-38
2023/07/06 00:51:04;;;;;;;12.25;8.35;;;13.90;99.90;;;;;;15392257;23;20028;-38
2023/07/06 00:57:13;;;;;;;11.25;8.73;;;13.90;99.90;;;;;;15413968;23;20459;-38
2023/07/06 01:03:19;;;;;;;10.55;8.65;;;13.80;99.90;;;;;;15386935;23;20069;-37
2023/07/06 01:09:24;;;;;;;10.60;8.48;;;13.70;99.90;;;;;;15420580;23;20481;-37
2023/07/06 01:15:31;;;;;;;12.02;8.45;;;13.60;99.90;;;;;;15417967;23;20031;-37
2023/07/06 01:21:42;;;;;;;13.13;8.48;;;13.60;99.90;;;;;;15419798;23;20319;-38
2023/07/06 01:28:20;;;;;;;10.68;7.60;;;13.60;99.90;;;;;;15393614;23;20459;-38
2023/07/06 01:34:25;;;;;;;9.63;7.60;;;13.50;99.90;;;;;;15419961;23;20024;-38
2023/07/06 01:40:28;;;;;;;10.43;8.50;;;13.50;99.90;;;;;;15418789;23;20017;-38
2023/07/06 01:46:30;;;;;;;11.75;9.57;;;13.40;99.90;;;;;;15400024;23;20474;-37
2023/07/06 01:53:07;;;;;;;15.15;10.50;;;13.50;99.90;;;;;;15411962;23;20027;-38
2023/07/06 01:59:12;;;;;;;15.45;11.00;;;13.50;99.90;;;;;;15278008;23;20028;-38
2023/07/06 02:05:16;;;;;;;15.10;10.90;;;13.50;99.90;;;;;;15395111;23;20490;-37
2023/07/06 02:11:20;;;;;;;17.65;12.07;;;13.40;99.90;;;;;;15423922;23;20529;-37
2023/07/06 02:17:22;;;;;;;;;;;13.30;99.90;;;;;;15389091;23;20071;-38
2023/07/06 02:23:24;;;;;;;22.30;16.55;;;13.30;99.90;;;;;;15420591;23;20308;-38
2023/07/06 02:29:26;;;;;;;24.33;17.27;;;13.40;99.90;;;;;;15426076;23;20378;-37
2023/07/06 02:35:28;;;;;;;24.35;18.58;;;13.40;99.90;;;;;;15416169;23;20020;-37
2023/07/06 02:41:31;;;;;;;26.08;19.77;;;13.40;99.90;;;;;;15419798;23;20020;-37
2023/07/06 02:47:33;;;;;;;26.98;19.35;;;13.30;99.90;;;;;;15419770;23;20020;-37
2023/07/06 02:53:35;;;;;;;23.30;19.48;;;13.30;99.90;;;;;;15418984;23;20032;-37
2023/07/06 02:59:37;;;;;;;26.38;18.77;;;13.30;99.90;;;;;;15425731;23;20021;-38
2023/07/06 03:05:42;;;;;;;24.48;17.73;;;13.20;99.90;;;;;;15414599;23;20028;-37
2023/07/06 03:11:47;;;;;;;25.48;17.27;;;13.20;99.90;;;;;;15420340;23;20024;-37
2023/07/06 03:17:50;;;;;;;;;;;13.10;99.90;;;;;;15415481;23;20025;-37
2023/07/06 03:23:53;;;;;;;22.40;15.48;;;13.10;99.90;;;;;;15464214;23;19923;-37
2023/07/06 03:29:54;;;;;;;19.50;14.73;;;13.20;99.90;;;;;;15482989;23;20028;-37
2023/07/06 03:35:58;;;;;;;20.75;14.82;;;13.30;99.90;;;;;;15497548;22;20036;-38
2023/07/06 03:42:01;;;;;;;19.70;14.40;;;13.30;99.90;;;;;;15497796;23;20024;-38
2023/07/06 03:48:03;;;;;;;23.27;13.85;;;13.30;99.90;;;;;;15495108;22;20497;-38
2023/07/06 03:54:06;;;;;;;19.33;13.95;;;13.40;99.90;;;;;;15500004;22;20102;-38
2023/07/06 04:00:22;;;;;;;18.42;14.20;;;13.50;99.90;;;;;;15467819;23;20048;-39
2023/07/06 04:06:25;;;;;;;21.40;14.30;;;13.50;99.90;;;;;;15499288;23;20032;-38
2023/07/06 04:12:27;;;;;;;20.20;13.38;;;13.50;99.90;;;;;;15491041;22;20481;-38
2023/07/06 04:18:29;;;;;;;17.02;12.82;;;14.00;99.90;;;;;;15502287;23;20024;-39
2023/07/06 04:24:31;;;;;;;14.30;10.70;;;15.10;99.90;;;;;;15492595;22;20051;-38
2023/07/06 04:30:35;;;;;;;17.70;10.73;;;15.30;99.90;;;;;;15501658;22;20031;-38
2023/07/06 04:36:39;;;;;;;17.47;9.47;;;15.30;99.90;;;;;;15496316;23;20116;-39
2023/07/06 04:42:41;;;;;;;13.55;8.50;;;15.50;99.90;;;;;;15494218;22;20264;-39
2023/07/06 04:48:44;;;;;;;16.60;8.75;;;16.50;99.90;;;;;;15498919;23;20104;-39
2023/07/06 04:54:50;;;;;;;14.52;8.70;;;16.00;99.90;;;;;;15487982;22;20020;-39
2023/07/06 05:00:52;;;;;;;15.38;8.77;;;15.20;99.90;;;;;;15492981;22;20047;-38
2023/07/06 05:06:55;;;;;;;12.27;8.18;;;14.70;99.90;;;;;;15500671;23;20028;-39
2023/07/06 05:12:57;;;;;;;12.23;8.40;;;14.60;99.90;;;;;;15494653;22;20027;-38
2023/07/06 05:18:59;;;;;;;15.40;8.02;;;14.60;99.90;;;;;;15470993;23;20079;-40
2023/07/06 05:25:01;;;;;;;10.93;6.75;;;14.60;99.90;;;;;;15458084;23;20024;-38
2023/07/06 05:31:03;;;;;;;11.60;7.57;;;14.50;99.90;;;;;;15491976;22;20024;-38
2023/07/06 05:37:05;;;;;;;9.32;6.40;;;14.50;99.90;;;;;;15470937;23;20070;-38
2023/07/06 05:43:09;;;;;;;11.32;6.88;;;14.80;99.90;;;;;;15491832;22;20028;-38
2023/07/06 05:49:11;;;;;;;9.77;6.78;;;14.70;99.90;;;;;;15492476;23;20032;-39
2023/07/06 05:55:13;;;;;;;11.27;6.47;;;14.80;99.90;;;;;;15493819;22;20021;-40
2023/07/06 06:01:18;;;;;;;9.85;5.70;;;15.00;99.90;;;;;;15498727;23;20019;-38
2023/07/06 06:07:20;;;;;;;9.73;5.50;;;15.10;99.90;;;;;;15489526;23;20024;-38
2023/07/06 06:13:24;;;;;;;10.77;5.13;;;15.10;99.90;;;;;;15489458;22;20020;-39
2023/07/06 06:19:27;;;;;;;11.77;5.53;;;15.00;99.90;;;;;;15497525;23;20133;-40
2023/07/06 06:25:29;;;;;;;8.37;4.67;;;15.10;99.90;;;;;;15493977;22;20025;-39
2023/07/06 06:31:32;;;;;;;9.35;4.50;;;15.20;99.90;;;;;;15496178;22;20421;-39
2023/07/06 06:37:34;;;;;;;8.30;4.30;;;15.70;99.90;;;;;;15493284;23;20024;-39
2023/07/06 06:43:38;;;;;;;8.25;3.50;;;16.00;99.90;;;;;;15499643;23;20032;-40
2023/07/06 06:49:40;;;;;;;6.55;3.35;;;16.30;99.90;;;;;;15468668;23;20024;-39
2023/07/06 06:55:42;;;;;;;6.55;3.53;;;16.10;99.90;;;;;;15499332;22;20031;-39
2023/07/06 07:01:45;;;;;;;10.88;3.75;;;16.40;99.90;;;;;;15475797;23;20020;-39
2023/07/06 07:07:49;;;;;;;7.60;3.70;;;16.30;99.90;;;;;;15495629;23;20059;-39
2023/07/06 07:13:52;;;;;;;11.23;3.42;;;16.30;99.90;;;;;;15497050;23;20098;-40
2023/07/06 07:19:54;;;;;;;9.60;3.63;;;16.20;99.90;;;;;;15468754;23;20035;-39
2023/07/06 07:25:56;;;;;;;11.73;3.20;;;16.40;99.90;;;;;;15495331;23;20036;-38
2023/07/06 07:31:59;;;;;;;9.00;3.30;;;16.70;99.90;;;;;;15498745;23;20042;-39
2023/07/06 07:38:01;;;;;;;7.95;3.25;;;16.60;99.90;;;;;;15493127;23;20016;-38
2023/07/06 07:44:03;;;;;;;8.10;3.10;;;16.60;99.90;;;;;;15498045;23;20024;-39
2023/07/06 07:50:06;;;;;;;10.55;3.22;;;16.50;99.90;;;;;;15494540;22;20446;-39
2023/07/06 07:56:08;;;;;;;11.13;3.53;;;16.60;99.90;;;;;;15423690;23;20020;-39
2023/07/06 08:02:10;;;;;;;8.80;2.97;;;16.70;99.90;;;;;;15495989;23;20024;-39
2023/07/06 08:08:12;;;;;;;8.55;2.67;;;16.80;99.90;;;;;;15494131;23;20030;-37
2023/07/06 08:14:37;;;;;;;9.23;2.83;;;16.90;99.90;;;;;;15496175;22;20047;-38
2023/07/06 08:20:40;;;;;;;6.10;2.38;;;16.90;99.90;;;;;;15497664;23;20020;-38
2023/07/06 08:27:03;;;;;;;6.72;2.25;;;17.00;99.90;;;;;;15492575;23;20059;-38
2023/07/06 08:33:06;;;;;;;7.32;2.15;;;17.20;99.90;;;;;;15491568;22;20365;-38
2023/07/06 08:39:08;;;;;;;8.77;2.47;;;17.50;99.90;;;;;;15498538;23;20023;-37
2023/07/06 08:45:34;;;;;;;7.32;2.25;;;17.60;99.90;;;;;;15490798;23;20024;-39
2023/07/06 08:51:37;;;;;;;10.80;2.25;;;17.80;99.90;;;;;;15488424;23;20031;-40
2023/07/06 08:57:39;;;;;;;9.55;2.50;;;17.80;99.90;;;;;;15466220;23;20665;-40
2023/07/06 09:03:48;;;;;;;7.75;2.28;;;18.00;99.90;;;;;;15494447;22;20442;-40
2023/07/06 09:09:54;;;;;;;4.07;1.88;;;18.40;99.90;;;;;;15474786;23;20102;-40
2023/07/06 09:16:03;;;;;;;10.80;2.10;;;18.70;99.90;;;;;;15484963;23;20030;-40
2023/07/06 09:22:09;;;;;;;8.93;2.10;;;19.00;99.90;;;;;;15452555;22;20061;-38
2023/07/06 09:28:19;;;;;;;6.57;1.77;;;19.30;99.90;;;;;;15484862;23;20344;-40
2023/07/06 09:34:28;;;;;;;4.75;1.70;;;20.00;99.90;;;;;;15492754;23;20457;-39
2023/07/06 09:40:30;;;;;;;8.25;1.85;;;19.80;99.90;;;;;;15493088;23;20346;-39
2023/07/06 09:46:36;;;;;;;5.10;1.70;;;20.10;99.90;;;;;;15484632;23;20466;-39
2023/07/06 09:52:41;;;;;;;6.32;2.05;;;20.60;99.90;;;;;;15485218;22;20095;-38
2023/07/06 09:58:45;;;;;;;4.15;1.38;;;20.80;99.90;;;;;;15468252;23;20043;-40
2023/07/06 10:05:21;;;;;;;4.32;1.52;;;20.90;99.90;;;;;;15501171;22;20039;-39
2023/07/06 10:11:35;;;;;;;4.65;1.42;;;20.70;99.90;;;;;;15502677;23;20020;-38
2023/07/06 10:17:38;;;;;;;;;;;20.20;99.90;;;;;;15503139;23;20024;-40
2023/07/06 10:24:01;;;;;;;5.00;1.70;;;20.30;99.90;;;;;;15499759;23;19923;-40
2023/07/06 10:30:10;;;;;;;4.28;1.48;;;20.60;99.90;;;;;;15494762;23;20028;-39
2023/07/06 10:36:14;;;;;;;5.43;1.50;;;21.10;99.90;;;;;;15435148;23;20043;-39
2023/07/06 10:42:25;;;;;;;5.18;1.33;;;21.60;99.90;;;;;;15469064;23;20106;-38
2023/07/06 10:48:34;;;;;;;5.18;1.75;;;21.50;99.90;;;;;;15470863;23;20024;-38
2023/07/06 10:54:36;;;;;;;5.90;1.52;;;20.60;99.90;;;;;;15490318;22;20446;-38
2023/07/06 11:00:44;;;;;;;9.48;1.83;;;20.90;99.90;;;;;;15494896;23;20050;-39
2023/07/06 11:06:50;;;;;;;3.35;1.48;;;21.00;99.90;;;;;;15496378;23;20080;-38
2023/07/06 11:13:04;;;;;;;4.07;1.02;;;20.80;99.90;;;;;;15491771;23;20024;-38
2023/07/06 11:19:07;;;;;;;7.00;1.63;;;20.30;99.90;;;;;;15496134;23;20083;-38
2023/07/06 11:25:12;;;;;;;7.32;1.70;;;19.50;99.90;;;;;;15492865;22;20485;-39
2023/07/06 11:31:47;;;;;;;6.03;1.55;;;19.50;99.90;;;;;;15472689;23;20050;-39
2023/07/06 11:38:13;;;;;;;3.95;1.30;;;19.80;99.90;;;;;;15494115;23;20043;-38
2023/07/06 11:44:24;;;;;;;3.33;1.50;;;19.70;99.90;;;;;;15492218;22;20024;-39
2023/07/06 11:50:35;;;;;;;5.32;1.40;;;19.70;99.90;;;;;;15497877;23;20024;-39
2023/07/06 11:57:13;;;;;;;4.28;1.30;;;19.70;99.90;;;;;;15493281;23;20024;-39
2023/07/06 12:03:14;;;;;;;4.25;1.30;;;19.40;99.90;;;;;;15492057;22;20020;-39
2023/07/06 12:09:18;;;;;;;3.23;1.23;;;19.40;99.90;;;;;;15497511;22;20386;-39
2023/07/06 12:15:21;;;;;;;2.97;1.33;;;19.60;99.90;;;;;;15496665;22;20147;-39
2023/07/06 12:21:27;;;;;;;3.33;1.15;;;19.80;99.90;;;;;;15497481;23;20043;-39
2023/07/06 12:27:33;;;;;;;5.82;1.67;;;20.40;99.90;;;;;;15495753;23;20024;-40
2023/07/06 12:33:36;;;;;;;5.97;1.48;;;21.30;99.90;;;;;;15498327;23;20028;-40
2023/07/06 12:39:45;;;;;;;4.75;1.35;;;21.30;99.90;;;;;;15495544;23;20813;-38
2023/07/06 12:45:47;;;;;;;4.72;1.08;;;21.30;99.90;;;;;;15471555;23;20039;-39
2023/07/06 12:51:57;;;;;;;4.75;1.40;;;21.10;99.90;;;;;;15490769;22;20078;-39
2023/07/06 12:58:35;;;;;;;3.15;1.00;;;21.10;99.90;;;;;;15495501;23;20028;-39
2023/07/06 13:04:45;;;;;;;6.15;1.27;;;21.40;99.90;;;;;;15491033;22;20043;-39
2023/07/06 13:11:03;;;;;;;3.28;1.02;;;21.90;99.90;;;;;;15492980;23;20032;-39
2023/07/06 13:17:13;;;;;;;4.25;1.30;;;22.20;99.90;;;;;;15496962;23;20565;-39
2023/07/06 13:23:18;;;;;;;4.70;1.02;;;22.10;99.90;;;;;;15491272;23;20021;-40
2023/07/06 13:29:20;;;;;;;4.97;1.15;;;22.30;99.90;;;;;;15494372;23;20024;-39
2023/07/06 13:35:23;;;;;;;2.22;1.10;;;22.30;99.90;;;;;;15495755;22;20016;-40
2023/07/06 13:41:28;;;;;;;3.20;1.30;;;22.40;99.90;;;;;;15499830;23;20074;-39
2023/07/06 13:47:31;;;;;;;2.42;0.95;;;22.30;99.90;;;;;;15496639;23;20473;-39
2023/07/06 13:53:33;;;;;;;4.20;1.43;;;22.00;99.90;;;;;;15496702;22;20020;-39
2023/07/06 13:59:36;;;;;;;5.37;1.40;;;22.20;99.90;;;;;;15496403;23;20243;-38
2023/07/06 14:05:38;;;;;;;3.25;1.05;;;22.10;99.90;;;;;;15493680;23;20078;-38
2023/07/06 14:11:41;;;;;;;5.20;1.27;;;21.70;99.90;;;;;;15497894;22;20030;-38
2023/07/06 14:17:43;;;;;;;5.40;1.35;;;21.40;99.90;;;;;;15501206;23;20020;-38
2023/07/06 14:23:46;;;;;;;4.93;1.25;;;21.90;99.90;;;;;;15495831;22;20354;-38
2023/07/06 14:29:48;;;;;;;2.85;1.20;;;21.60;99.90;;;;;;15499200;22;20027;-37
2023/07/06 14:35:50;;;;;;;5.38;1.80;;;20.90;99.90;;;;;;15471731;23;20020;-38
2023/07/06 14:41:52;;;;;;;4.32;1.17;;;20.70;99.90;;;;;;15497569;22;20033;-38
2023/07/06 14:47:54;;;;;;;5.03;1.20;;;20.90;99.90;;;;;;15495351;23;20323;-37
2023/07/06 14:53:57;;;;;;;5.63;1.50;;;21.20;99.90;;;;;;15494188;22;20021;-38
2023/07/06 14:59:58;;;;;;;3.50;1.83;;;21.70;99.90;;;;;;15499932;23;20028;-37
2023/07/06 15:06:06;;;;;;;4.95;1.58;;;22.10;99.90;;;;;;15472179;23;20099;-38
2023/07/06 15:12:09;;;;;;;5.05;1.65;;;21.90;99.90;;;;;;15499426;22;20334;-37
2023/07/06 15:18:11;;;;;;;6.78;1.73;;;22.00;99.90;;;;;;15466283;23;20139;-37
2023/07/06 15:24:14;;;;;;;3.90;1.40;;;22.20;99.90;;;;;;15500998;22;20086;-37
2023/07/06 15:30:16;;;;;;;4.17;1.53;;;22.20;99.90;;;;;;15474222;23;20028;-38
2023/07/06 15:36:18;;;;;;;4.88;1.65;;;22.50;99.90;;;;;;15500193;23;20278;-39
2023/07/06 15:42:20;;;;;;;4.25;1.88;;;22.40;99.90;;;;;;15499705;22;20020;-38
2023/07/06 15:48:22;;;;;;;4.40;1.63;;;22.40;99.90;;;;;;15492893;22;20024;-38
2023/07/06 15:54:24;;;;;;;6.40;1.60;;;22.60;99.90;;;;;;15488321;22;20021;-38
2023/07/06 16:00:28;;;;;;;3.72;1.27;;;22.60;99.90;;;;;;15492881;22;20022;-38
2023/07/06 16:06:33;;;;;;;5.40;1.67;;;22.80;99.90;;;;;;15497461;23;20039;-39
2023/07/06 16:12:35;;;;;;;2.85;1.30;;;22.40;99.90;;;;;;15498671;23;20529;-38
2023/07/06 16:18:37;;;;;;;4.15;1.40;;;22.70;99.90;;;;;;15470975;23;20028;-38
2023/07/06 16:24:40;;;;;;;3.55;1.48;;;22.90;99.90;;;;;;15496675;23;20032;-37
2023/07/06 16:30:42;;;;;;;;;;;22.90;99.90;;;;;;15501742;22;20020;-38
2023/07/06 16:36:44;;;;;;;5.07;1.17;;;22.80;99.90;;;;;;15500391;23;20005;-38
2023/07/06 16:42:46;;;;;;;2.47;1.15;;;23.00;99.90;;;;;;15477643;22;20023;-38
2023/07/06 16:48:48;;;;;;;3.08;1.20;;;23.10;99.90;;;;;;15465169;23;20031;-39
2023/07/06 16:54:50;;;;;;;3.97;1.27;;;23.00;99.90;;;;;;15492479;22;20020;-38
2023/07/06 17:01:03;;;;;;;3.95;1.58;;;22.80;99.90;;;;;;15499527;22;20021;-38
2023/07/06 17:07:06;;;;;;;3.08;1.20;;;22.70;99.90;;;;;;15467353;23;20031;-38
2023/07/06 17:13:08;;;;;;;4.60;1.35;;;22.50;99.90;;;;;;15498721;23;20028;-37
2023/07/06 17:19:10;;;;;;;2.95;1.50;;;22.60;99.90;;;;;;15496733;23;20042;-38
2023/07/06 17:25:11;;;;;;;4.15;1.67;;;22.90;99.90;;;;;;15467696;23;20027;-38
2023/07/06 17:31:15;;;;;;;2.67;1.13;;;23.10;99.90;;;;;;15490027;23;20024;-39
2023/07/06 17:37:17;;;;;;;2.63;1.13;;;23.00;99.90;;;;;;15492983;23;20020;-38
2023/07/06 17:43:19;;;;;;;3.28;1.23;;;23.30;99.90;;;;;;15488912;22;20028;-38
2023/07/06 17:49:21;;;;;;;3.75;1.20;;;23.70;99.90;;;;;;15487511;23;20327;-38
2023/07/06 17:55:23;;;;;;;2.97;1.30;;;23.90;99.90;;;;;;15490341;22;20031;-38
2023/07/06 18:01:25;;;;;;;2.20;1.20;;;24.40;99.90;;;;;;15491188;23;20111;-37
2023/07/06 18:07:27;;;;;;;3.72;1.40;;;24.70;99.90;;;;;;15489622;23;20529;-38
2023/07/06 18:13:29;;;;;;;3.83;1.40;;;25.00;99.90;;;;;;15494921;22;20087;-39
2023/07/06 18:19:31;;;;;;;3.73;1.30;;;24.30;99.90;;;;;;15491501;23;20016;-37
2023/07/06 18:25:37;;;;;;;5.47;1.30;;;23.80;99.90;;;;;;15468077;23;20035;-37
2023/07/06 18:31:38;;;;;;;7.28;1.52;;;23.00;99.90;;;;;;15497260;23;20089;-39
2023/07/06 18:37:41;;;;;;;5.75;1.73;;;22.50;99.90;;;;;;15498965;23;20115;-39
2023/07/06 18:43:44;;;;;;;6.05;1.75;;;22.00;99.90;;;;;;15500861;22;20024;-38
2023/07/06 18:49:46;;;;;;;2.38;1.33;;;21.60;99.90;;;;;;15471528;23;20039;-38
2023/07/06 18:55:48;;;;;;;3.75;1.52;;;21.40;99.90;;;;;;15491070;22;20027;-38
2023/07/06 19:01:49;;;;;;;4.20;1.52;;;21.20;99.90;;;;;;15497388;22;20047;-38
2023/07/06 19:07:52;;;;;;;4.25;1.50;;;21.00;99.90;;;;;;15476619;23;20470;-38
2023/07/06 19:14:04;;;;;;;4.45;1.60;;;20.60;99.90;;;;;;15500700;23;20056;-38
2023/07/06 19:20:06;;;;;;;6.10;1.70;;;20.40;99.90;;;;;;15471348;23;20390;-37
2023/07/06 19:26:08;;;;;;;3.92;1.70;;;20.00;99.90;;;;;;15439369;23;20510;-37
2023/07/06 19:32:10;;;;;;;7.00;2.05;;;19.40;99.90;;;;;;15490713;22;20035;-38
2023/07/06 19:38:18;;;;;;;5.47;1.73;;;19.00;99.90;;;;;;15500230;23;20023;-36
2023/07/06 19:44:19;;;;;;;3.60;1.73;;;18.80;99.90;;;;;;15462537;23;20026;-37
2023/07/06 19:50:23;;;;;;;3.60;1.70;;;18.00;99.90;;;;;;15499581;23;20026;-37
2023/07/06 19:56:28;;;;;;;3.27;1.70;;;17.60;99.90;;;;;;15499995;23;20462;-37
2023/07/06 20:02:30;;;;;;;6.30;2.08;;;17.00;99.90;;;;;;15497346;22;20017;-37
2023/07/06 20:08:33;;;;;;;4.68;2.10;;;16.80;99.90;;;;;;15494286;22;20031;-38
2023/07/06 20:14:35;;;;;;;3.93;1.90;;;16.60;99.90;;;;;;15492566;23;20030;-38
2023/07/06 20:20:37;;;;;;;5.05;1.83;;;16.50;99.90;;;;;;15492727;23;20046;-37
2023/07/06 20:26:39;;;;;;;3.83;1.80;;;16.40;99.90;;;;;;15500626;23;20024;-37
2023/07/06 20:32:41;;;;;;;3.33;1.60;;;16.20;99.90;;;;;;15466405;23;20043;-37
2023/07/06 20:38:44;;;;;;;5.00;1.80;;;16.10;99.90;;;;;;15487518;23;20020;-37
2023/07/06 20:44:47;;;;;;;4.50;1.80;;;16.10;99.90;;;;;;15497151;23;20031;-36
2023/07/06 20:50:51;;;;;;;8.45;1.77;;;15.90;99.90;;;;;;15489011;23;20125;-37
2023/07/06 20:56:53;;;;;;;5.25;1.90;;;15.80;99.90;;;;;;15468389;23;20020;-36
2023/07/06 21:02:55;;;;;;;3.80;1.95;;;15.60;99.90;;;;;;15493705;22;20044;-37
2023/07/06 21:08:57;;;;;;;4.82;1.85;;;15.30;99.90;;;;;;15496175;23;20028;-37
2023/07/06 21:14:59;;;;;;;5.28;2.13;;;15.40;99.90;;;;;;15498872;22;20035;-37
2023/07/06 21:21:00;;;;;;;4.55;1.60;;;15.70;99.90;;;;;;15455211;23;20024;-37
2023/07/06 21:27:03;;;;;;;6.95;2.13;;;15.90;99.90;;;;;;15489148;23;20055;-37
2023/07/06 21:33:05;;;;;;;3.42;1.52;;;15.30;99.90;;;;;;15497009;23;20407;-37
2023/07/06 21:39:08;;;;;;;5.05;2.00;;;15.10;99.90;;;;;;15488450;23;20357;-37
2023/07/06 21:45:10;;;;;;;3.57;1.60;;;15.00;99.90;;;;;;15491762;22;20113;-37
2023/07/06 21:51:12;;;;;;;2.88;1.75;;;14.80;99.90;;;;;;15495909;23;20024;-37
2023/07/06 21:57:14;;;;;;;2.95;1.70;;;14.70;99.90;;;;;;15495045;23;20020;-37
2023/07/06 22:03:17;;;;;;;6.97;1.90;;;14.90;99.90;;;;;;15499541;23;20325;-37
2023/07/06 22:09:19;;;;;;;8.90;2.28;;;15.20;99.90;;;;;;15501232;22;20028;-38
2023/07/06 22:15:21;;;;;;;6.05;2.00;;;15.50;99.90;;;;;;15502277;23;20020;-37
2023/07/06 22:21:35;;;;;;;4.28;2.03;;;15.70;99.90;;;;;;15500286;23;20016;-37
2023/07/06 22:27:37;;;;;;;5.13;1.90;;;15.70;99.90;;;;;;15503144;23;20020;-37
2023/07/06 22:33:40;;;;;;;11.25;2.17;;;15.70;99.90;;;;;;15499387;23;20028;-37
2023/07/06 22:39:42;;;;;;;4.22;2.03;;;15.50;99.90;;;;;;15499445;23;20020;-36
2023/07/06 22:45:44;;;;;;;9.52;2.22;;;15.30;99.90;;;;;;15476914;23;20078;-37
2023/07/06 22:51:46;;;;;;;4.72;2.00;;;15.40;99.90;;;;;;15499029;23;20039;-37
2023/07/06 22:57:48;;;;;;;5.38;2.30;;;15.30;99.90;;;;;;15494447;23;20024;-37
2023/07/06 23:03:50;;;;;;;4.13;1.92;;;15.10;99.90;;;;;;15498908;22;20024;-37
2023/07/06 23:09:52;;;;;;;5.65;2.22;;;14.90;99.90;;;;;;15472655;23;20031;-37
2023/07/06 23:15:54;;;;;;;4.88;2.22;;;14.80;99.90;;;;;;15502860;22;20354;-37
2023/07/06 23:21:59;;;;;;;6.25;2.28;;;14.80;99.90;;;;;;15501626;23;20454;-38
2023/07/06 23:28:07;;;;;;;4.18;2.05;;;14.90;99.90;;;;;;15501803;23;20024;-37
2023/07/06 23:34:11;;;;;;;5.32;2.25;;;14.90;99.90;;;;;;15498692;23;20078;-37
2023/07/06 23:40:17;;;;;;;4.57;2.15;;;14.70;99.90;;;;;;15499299;22;20020;-37
2023/07/06 23:46:20;;;;;;;4.68;1.88;;;14.60;99.90;;;;;;15493237;23;20028;-38
2023/07/06 23:52:22;;;;;;;5.47;2.00;;;14.10;99.90;;;;;;15495763;22;20028;-37
2023/07/06 23:58:24;;;;;;;3.55;1.90;;;14.00;99.90;;;;;;15498106;23;20043;-37
